sensor_id;sensor_type;location;lat;lon;timestamp;pressure;altitude;pressure_sealevel;temperature;humidity
40992;BME280;29633;49.168;9.848;2023-02-21T00:02:09;97294.91;;;13.01;60.94
40992;BME280;29633;49.168;9.848;2023-02-21T00:04:54;97299.28;;;13.01;60.78
40992;BME280;29633;49.168;9.848;2023-02-21T00:07:38;97293.38;;;12.99;60.82
40992;BME280;29633;49.168;9.848;2023-02-21T00:10:22;97285.13;;;12.94;60.90
40992;BME280;29633;49.168;9.848;2023-02-21T00:13:07;97298.25;;;12.92;61.00
40992;BME280;29633;49.168;9.848;2023-02-21T00:15:51;97296.47;;;12.93;60.82
40992;BME280;29633;49.168;9.848;2023-02-21T00:18:35;97290.91;;;12.97;60.95
40992;BME280;29633;49.168;9.848;2023-02-21T00:21:20;97291.75;;;12.98;60.82
40992;BME280;29633;49.168;9.848;2023-02-21T00:24:07;97294.19;;;12.99;60.86
40992;BME280;29633;49.168;9.848;2023-02-21T00:26:51;97286.38;;;12.99;60.63
40992;BME280;29633;49.168;9.848;2023-02-21T00:29:36;97282.28;;;12.97;60.75
40992;BME280;29633;49.168;9.848;2023-02-21T00:32:20;97278.28;;;12.93;60.74
40992;BME280;29633;49.168;9.848;2023-02-21T00:35:04;97285.38;;;12.91;60.81
40992;BME280;29633;49.168;9.848;2023-02-21T00:37:51;97279.47;;;12.89;60.94
40992;BME280;29633;49.168;9.848;2023-02-21T00:40:36;97279.03;;;12.83;61.00
40992;BME280;29633;49.168;9.848;2023-02-21T00:43:30;97276.66;;;12.80;61.03
40992;BME280;29633;49.168;9.848;2023-02-21T00:46:14;97272.41;;;12.79;61.04
40992;BME280;29633;49.168;9.848;2023-02-21T00:48:59;97270.88;;;12.77;60.99
40992;BME280;29633;49.168;9.848;2023-02-21T00:51:44;97265.09;;;12.73;60.85
40992;BME280;29633;49.168;9.848;2023-02-21T00:54:28;97264.41;;;12.71;60.94
40992;BME280;29633;49.168;9.848;2023-02-21T00:57:12;97271.13;;;12.74;60.86
40992;BME280;29633;49.168;9.848;2023-02-21T00:59:57;97266.06;;;12.72;60.98
40992;BME280;29633;49.168;9.848;2023-02-21T01:02:41;97269.50;;;12.73;60.82
40992;BME280;29633;49.168;9.848;2023-02-21T01:05:25;97267.00;;;12.71;60.97
40992;BME280;29633;49.168;9.848;2023-02-21T01:08:10;97264.41;;;12.71;60.77
40992;BME280;29633;49.168;9.848;2023-02-21T01:10:54;97260.28;;;12.69;60.89
40992;BME280;29633;49.168;9.848;2023-02-21T01:13:38;97255.91;;;12.69;60.98
40992;BME280;29633;49.168;9.848;2023-02-21T01:16:23;97256.03;;;12.68;60.84
40992;BME280;29633;49.168;9.848;2023-02-21T01:19:07;97252.84;;;12.64;60.84
40992;BME280;29633;49.168;9.848;2023-02-21T01:21:51;97254.63;;;12.64;60.87
40992;BME280;29633;49.168;9.848;2023-02-21T01:24:35;97258.06;;;12.64;60.93
40992;BME280;29633;49.168;9.848;2023-02-21T01:27:19;97254.25;;;12.68;60.74
40992;BME280;29633;49.168;9.848;2023-02-21T01:30:04;97253.16;;;12.71;60.85
40992;BME280;29633;49.168;9.848;2023-02-21T01:32:48;97252.66;;;12.77;60.82
40992;BME280;29633;49.168;9.848;2023-02-21T01:35:33;97257.66;;;12.80;60.67
40992;BME280;29633;49.168;9.848;2023-02-21T01:38:17;97256.66;;;12.81;60.68
40992;BME280;29633;49.168;9.848;2023-02-21T01:41:01;97248.28;;;12.77;60.83
40992;BME280;29633;49.168;9.848;2023-02-21T01:44:33;97251.28;;;12.73;60.87
40992;BME280;29633;49.168;9.848;2023-02-21T01:47:17;97243.84;;;12.68;60.83
40992;BME280;29633;49.168;9.848;2023-02-21T01:50:06;97245.72;;;12.66;60.73
40992;BME280;29633;49.168;9.848;2023-02-21T01:52:51;97240.66;;;12.65;60.76
40992;BME280;29633;49.168;9.848;2023-02-21T01:55:36;97240.78;;;12.63;60.93
40992;BME280;29633;49.168;9.848;2023-02-21T01:58:22;97242.34;;;12.66;61.05
40992;BME280;29633;49.168;9.848;2023-02-21T02:01:08;97242.34;;;12.66;60.80
40992;BME280;29633;49.168;9.848;2023-02-21T02:03:53;97245.16;;;12.63;60.88
40992;BME280;29633;49.168;9.848;2023-02-21T02:06:38;97248.16;;;12.58;60.76
40992;BME280;29633;49.168;9.848;2023-02-21T02:09:23;97249.78;;;12.59;60.73
40992;BME280;29633;49.168;9.848;2023-02-21T02:23:45;97248.34;;;12.66;60.84
40992;BME280;29633;49.168;9.848;2023-02-21T02:26:41;97248.22;;;12.68;60.83
40992;BME280;29633;49.168;9.848;2023-02-21T02:40:20;97243.63;;;12.60;60.58
40992;BME280;29633;49.168;9.848;2023-02-21T02:51:08;97241.94;;;12.39;60.57
40992;BME280;29633;49.168;9.848;2023-02-21T02:53:35;97246.56;;;12.35;60.64
40992;BME280;29633;49.168;9.848;2023-02-21T02:56:03;97240.56;;;12.23;60.85
40992;BME280;29633;49.168;9.848;2023-02-21T02:58:51;97238.13;;;12.11;60.74
40992;BME280;29633;49.168;9.848;2023-02-21T03:01:49;97238.59;;;12.05;60.71
40992;BME280;29633;49.168;9.848;2023-02-21T03:07:30;97242.25;;;11.91;60.71
40992;BME280;29633;49.168;9.848;2023-02-21T03:10:11;97244.28;;;11.88;60.63
40992;BME280;29633;49.168;9.848;2023-02-21T03:12:56;97239.81;;;11.78;60.68
40992;BME280;29633;49.168;9.848;2023-02-21T03:15:45;97239.47;;;11.72;60.62
40992;BME280;29633;49.168;9.848;2023-02-21T03:20:56;97237.53;;;11.52;60.70
40992;BME280;29633;49.168;9.848;2023-02-21T03:23:22;97232.47;;;11.50;60.68
40992;BME280;29633;49.168;9.848;2023-02-21T03:25:50;97238.84;;;11.46;60.70
40992;BME280;29633;49.168;9.848;2023-02-21T03:28:17;97227.13;;;11.41;60.75
40992;BME280;29633;49.168;9.848;2023-02-21T03:30:43;97224.88;;;11.36;60.55
40992;BME280;29633;49.168;9.848;2023-02-21T03:33:10;97226.19;;;11.30;60.64
40992;BME280;29633;49.168;9.848;2023-02-21T03:35:36;97228.28;;;11.25;60.86
40992;BME280;29633;49.168;9.848;2023-02-21T03:38:01;97236.66;;;11.18;60.72
40992;BME280;29633;49.168;9.848;2023-02-21T03:40:30;97223.31;;;11.11;60.83
40992;BME280;29633;49.168;9.848;2023-02-21T03:42:57;97225.56;;;11.05;60.84
40992;BME280;29633;49.168;9.848;2023-02-21T03:45:23;97223.31;;;11.00;60.75
40992;BME280;29633;49.168;9.848;2023-02-21T03:47:49;97220.59;;;11.02;60.62
40992;BME280;29633;49.168;9.848;2023-02-21T03:50:15;97221.44;;;11.02;60.94
40992;BME280;29633;49.168;9.848;2023-02-21T03:52:40;97217.19;;;11.01;60.44
40992;BME280;29633;49.168;9.848;2023-02-21T03:55:07;97218.94;;;11.01;60.81
40992;BME280;29633;49.168;9.848;2023-02-21T03:57:33;97212.09;;;11.00;60.64
40992;BME280;29633;49.168;9.848;2023-02-21T03:59:58;97218.72;;;11.04;60.45
40992;BME280;29633;49.168;9.848;2023-02-21T04:02:24;97215.19;;;11.05;60.47
40992;BME280;29633;49.168;9.848;2023-02-21T04:04:49;97217.53;;;11.08;60.50
40992;BME280;29633;49.168;9.848;2023-02-21T04:07:16;97218.72;;;11.04;60.91
40992;BME280;29633;49.168;9.848;2023-02-21T04:09:43;97216.34;;;11.01;60.42
40992;BME280;29633;49.168;9.848;2023-02-21T04:12:09;97220.13;;;10.97;60.83
40992;BME280;29633;49.168;9.848;2023-02-21T04:14:35;97216.59;;;10.98;60.74
40992;BME280;29633;49.168;9.848;2023-02-21T04:17:00;97217.28;;;11.00;60.69
40992;BME280;29633;49.168;9.848;2023-02-21T04:19:26;97221.53;;;11.01;60.80
40992;BME280;29633;49.168;9.848;2023-02-21T04:21:52;97222.03;;;11.06;60.80
40992;BME280;29633;49.168;9.848;2023-02-21T04:24:17;97227.22;;;11.06;60.74
40992;BME280;29633;49.168;9.848;2023-02-21T04:26:43;97233.00;;;11.09;60.80
40992;BME280;29633;49.168;9.848;2023-02-21T04:29:09;97228.66;;;11.10;60.68
40992;BME280;29633;49.168;9.848;2023-02-21T04:31:35;97231.34;;;11.08;60.88
40992;BME280;29633;49.168;9.848;2023-02-21T04:34:01;97225.31;;;11.08;60.65
40992;BME280;29633;49.168;9.848;2023-02-21T04:36:27;97223.91;;;11.04;60.86
40992;BME280;29633;49.168;9.848;2023-02-21T04:38:52;97220.59;;;11.02;61.01
40992;BME280;29633;49.168;9.848;2023-02-21T04:41:18;97217.28;;;11.00;60.96
40992;BME280;29633;49.168;9.848;2023-02-21T04:43:44;97217.28;;;11.00;60.79
40992;BME280;29633;49.168;9.848;2023-02-21T04:46:12;97216.34;;;11.01;60.84
40992;BME280;29633;49.168;9.848;2023-02-21T04:48:42;97212.09;;;11.00;60.98
40992;BME280;29633;49.168;9.848;2023-02-21T04:51:08;97207.97;;;10.97;60.74
40992;BME280;29633;49.168;9.848;2023-02-21T04:53:33;97202.19;;;10.94;61.00
40992;BME280;29633;49.168;9.848;2023-02-21T04:55:59;97207.59;;;10.91;60.88
40992;BME280;29633;49.168;9.848;2023-02-21T04:58:25;97211.38;;;10.86;60.75
40992;BME280;29633;49.168;9.848;2023-02-21T05:00:50;97205.59;;;10.83;60.79
40992;BME280;29633;49.168;9.848;2023-02-21T05:03:16;97205.72;;;10.81;60.84
40992;BME280;29633;49.168;9.848;2023-02-21T05:05:43;97210.06;;;10.81;60.80
40992;BME280;29633;49.168;9.848;2023-02-21T05:08:08;97220.78;;;10.76;60.70
40992;BME280;29633;49.168;9.848;2023-02-21T05:10:34;97221.94;;;10.72;60.81
40992;BME280;29633;49.168;9.848;2023-02-21T05:13:00;97222.28;;;10.68;60.88
40992;BME280;29633;49.168;9.848;2023-02-21T05:15:25;97223.78;;;10.59;60.97
40992;BME280;29633;49.168;9.848;2023-02-21T05:17:51;97224.13;;;10.55;60.85
40992;BME280;29633;49.168;9.848;2023-02-21T05:20:16;97225.59;;;10.46;60.88
40992;BME280;29633;49.168;9.848;2023-02-21T05:22:42;97222.41;;;10.43;60.98
40992;BME280;29633;49.168;9.848;2023-02-21T05:25:15;97222.41;;;10.43;61.08
40992;BME280;29633;49.168;9.848;2023-02-21T05:27:42;97220.88;;;10.40;60.67
40992;BME280;29633;49.168;9.848;2023-02-21T05:30:08;97215.78;;;10.38;60.79
40992;BME280;29633;49.168;9.848;2023-02-21T05:32:33;97214.38;;;10.34;60.74
40992;BME280;29633;49.168;9.848;2023-02-21T05:34:59;97217.06;;;10.33;60.76
40992;BME280;29633;49.168;9.848;2023-02-21T05:37:25;97213.75;;;10.31;60.94
40992;BME280;29633;49.168;9.848;2023-02-21T05:39:50;97224.13;;;10.31;60.92
40992;BME280;29633;49.168;9.848;2023-02-21T05:42:16;97219.88;;;10.30;60.77
40992;BME280;29633;49.168;9.848;2023-02-21T05:44:44;97217.53;;;10.27;61.00
40992;BME280;29633;49.168;9.848;2023-02-21T05:47:10;97215.97;;;10.24;60.86
40992;BME280;29633;49.168;9.848;2023-02-21T05:49:36;97222.19;;;10.22;60.77
40992;BME280;29633;49.168;9.848;2023-02-21T05:52:02;97208.41;;;10.21;60.80
40992;BME280;29633;49.168;9.848;2023-02-21T05:54:29;97209.47;;;10.19;60.92
40992;BME280;29633;49.168;9.848;2023-02-21T05:56:54;97204.50;;;10.16;60.87
40992;BME280;29633;49.168;9.848;2023-02-21T05:59:20;97206.34;;;10.14;60.92
40992;BME280;29633;49.168;9.848;2023-02-21T06:01:47;97216.09;;;10.10;60.92
40992;BME280;29633;49.168;9.848;2023-02-21T06:04:13;97212.19;;;10.05;60.99
40992;BME280;29633;49.168;9.848;2023-02-21T06:06:38;97212.41;;;10.02;61.02
40992;BME280;29633;49.168;9.848;2023-02-21T06:09:04;97204.97;;;9.97;61.01
40992;BME280;29633;49.168;9.848;2023-02-21T06:11:32;97206.94;;;9.94;60.81
40992;BME280;29633;49.168;9.848;2023-02-21T06:13:59;97207.78;;;9.94;60.85
40992;BME280;29633;49.168;9.848;2023-02-21T06:16:26;97207.03;;;9.92;60.93
40992;BME280;29633;49.168;9.848;2023-02-21T06:18:54;97207.16;;;9.91;60.83
40992;BME280;29633;49.168;9.848;2023-02-21T06:21:20;97207.88;;;9.93;60.82
40992;BME280;29633;49.168;9.848;2023-02-21T06:23:46;97204.56;;;9.91;60.75
40992;BME280;29633;49.168;9.848;2023-02-21T06:26:13;97210.78;;;9.88;60.80
40992;BME280;29633;49.168;9.848;2023-02-21T06:28:39;97206.56;;;9.87;60.73
40992;BME280;29633;49.168;9.848;2023-02-21T06:31:05;97209.25;;;9.85;60.79
40992;BME280;29633;49.168;9.848;2023-02-21T06:33:30;97200.84;;;9.82;60.81
40992;BME280;29633;49.168;9.848;2023-02-21T06:35:56;97209.69;;;9.79;60.93
40992;BME280;29633;49.168;9.848;2023-02-21T06:38:22;97203.53;;;9.80;60.93
40992;BME280;29633;49.168;9.848;2023-02-21T06:40:47;97203.97;;;9.74;60.98
40992;BME280;29633;49.168;9.848;2023-02-21T06:43:13;97203.97;;;9.74;60.92
40992;BME280;29633;49.168;9.848;2023-02-21T06:45:39;97203.34;;;9.83;60.84
40992;BME280;29633;49.168;9.848;2023-02-21T06:48:04;97211.72;;;9.87;60.81
40992;BME280;29633;49.168;9.848;2023-02-21T06:50:32;97206.09;;;9.93;60.62
40992;BME280;29633;49.168;9.848;2023-02-21T06:52:59;97211.69;;;10.00;60.67
40992;BME280;29633;49.168;9.848;2023-02-21T06:55:24;97201.22;;;10.01;60.87
40992;BME280;29633;49.168;9.848;2023-02-21T06:57:50;97205.44;;;10.02;60.84
40992;BME280;29633;49.168;9.848;2023-02-21T07:00:16;97206.19;;;10.04;60.91
40992;BME280;29633;49.168;9.848;2023-02-21T07:02:42;97215.25;;;10.10;60.84
40992;BME280;29633;49.168;9.848;2023-02-21T07:05:09;97218.28;;;10.16;60.62
40992;BME280;29633;49.168;9.848;2023-02-21T07:07:34;97217.13;;;10.20;60.84
40992;BME280;29633;49.168;9.848;2023-02-21T07:10:00;97220.75;;;10.18;60.99
40992;BME280;29633;49.168;9.848;2023-02-21T07:12:26;97213.72;;;10.20;61.11
40992;BME280;29633;49.168;9.848;2023-02-21T07:14:55;97221.75;;;10.28;60.89
40992;BME280;29633;49.168;9.848;2023-02-21T07:17:20;97218.75;;;10.34;60.99
40992;BME280;29633;49.168;9.848;2023-02-21T07:19:46;97219.22;;;10.39;60.93
40992;BME280;29633;49.168;9.848;2023-02-21T07:22:12;97218.88;;;10.44;61.12
40992;BME280;29633;49.168;9.848;2023-02-21T07:24:40;97224.34;;;10.52;61.11
40992;BME280;29633;49.168;9.848;2023-02-21T07:27:06;97231.56;;;10.59;61.10
40992;BME280;29633;49.168;9.848;2023-02-21T07:29:31;97222.88;;;10.71;60.79
40992;BME280;29633;49.168;9.848;2023-02-21T07:31:57;97232.34;;;10.83;60.81
40992;BME280;29633;49.168;9.848;2023-02-21T07:34:22;97234.38;;;10.91;61.04
40992;BME280;29633;49.168;9.848;2023-02-21T07:36:49;97238.03;;;11.00;60.91
40992;BME280;29633;49.168;9.848;2023-02-21T07:39:14;97233.00;;;11.09;61.15
40992;BME280;29633;49.168;9.848;2023-02-21T07:41:40;97234.19;;;11.16;61.13
40992;BME280;29633;49.168;9.848;2023-02-21T07:44:06;97237.97;;;11.23;61.17
40992;BME280;29633;49.168;9.848;2023-02-21T07:46:32;97240.34;;;11.26;61.34
40992;BME280;29633;49.168;9.848;2023-02-21T07:48:59;97242.47;;;11.32;61.24
40992;BME280;29633;49.168;9.848;2023-02-21T07:51:31;97244.84;;;11.47;61.23
40992;BME280;29633;49.168;9.848;2023-02-21T07:53:56;97243.81;;;11.60;61.20
40992;BME280;29633;49.168;9.848;2023-02-21T07:56:22;97236.03;;;11.71;61.18
40992;BME280;29633;49.168;9.848;2023-02-21T07:58:48;97243.00;;;11.82;61.00
40992;BME280;29633;49.168;9.848;2023-02-21T08:01:14;97233.78;;;11.89;61.04
40992;BME280;29633;49.168;9.848;2023-02-21T08:03:40;97239.22;;;11.97;61.05
40992;BME280;29633;49.168;9.848;2023-02-21T08:06:07;97236.81;;;12.05;61.00
40992;BME280;29633;49.168;9.848;2023-02-21T08:08:33;97227.72;;;12.11;60.90
40992;BME280;29633;49.168;9.848;2023-02-21T08:10:59;97222.03;;;12.17;60.88
40992;BME280;29633;49.168;9.848;2023-02-21T08:13:24;97229.22;;;12.24;60.96
40992;BME280;29633;49.168;9.848;2023-02-21T08:15:50;97230.28;;;12.33;61.04
40992;BME280;29633;49.168;9.848;2023-02-21T08:18:20;97235.56;;;12.43;60.83
40992;BME280;29633;49.168;9.848;2023-02-21T08:20:49;97229.28;;;12.45;60.86
40992;BME280;29633;49.168;9.848;2023-02-21T08:23:16;97228.66;;;12.53;60.79
40992;BME280;29633;49.168;9.848;2023-02-21T08:25:43;97237.59;;;12.60;61.03
40992;BME280;29633;49.168;9.848;2023-02-21T08:28:09;97236.31;;;12.65;61.03
40992;BME280;29633;49.168;9.848;2023-02-21T08:30:35;97232.63;;;12.68;61.04
40992;BME280;29633;49.168;9.848;2023-02-21T08:33:01;97231.41;;;12.72;60.78
40992;BME280;29633;49.168;9.848;2023-02-21T08:35:26;97233.50;;;12.78;61.37
40992;BME280;29633;49.168;9.848;2023-02-21T08:37:52;97239.03;;;12.84;61.22
40992;BME280;29633;49.168;9.848;2023-02-21T08:40:22;97237.22;;;12.96;61.12
40992;BME280;29633;49.168;9.848;2023-02-21T08:42:49;97242.00;;;13.12;61.06
40992;BME280;29633;49.168;9.848;2023-02-21T08:45:16;97240.59;;;13.28;61.29
40992;BME280;29633;49.168;9.848;2023-02-21T08:47:43;97235.06;;;14.13;60.56
40992;BME280;29633;49.168;9.848;2023-02-21T08:50:09;97231.31;;;16.23;57.38
40992;BME280;29633;49.168;9.848;2023-02-21T08:52:34;97219.78;;;18.08;54.85
40992;BME280;29633;49.168;9.848;2023-02-21T08:55:00;97217.72;;;19.73;53.43
40992;BME280;29633;49.168;9.848;2023-02-21T08:57:26;97214.69;;;20.39;53.02
40992;BME280;29633;49.168;9.848;2023-02-21T08:59:51;97223.25;;;20.64;53.57
40992;BME280;29633;49.168;9.848;2023-02-21T09:02:22;97215.88;;;21.72;52.90
40992;BME280;29633;49.168;9.848;2023-02-21T09:04:50;97222.38;;;22.85;51.62
40992;BME280;29633;49.168;9.848;2023-02-21T09:07:18;97231.72;;;23.85;50.95
40992;BME280;29633;49.168;9.848;2023-02-21T09:09:44;97229.75;;;23.94;51.37
40992;BME280;29633;49.168;9.848;2023-02-21T09:12:11;97226.94;;;24.43;51.50
40992;BME280;29633;49.168;9.848;2023-02-21T09:14:38;97226.78;;;24.71;51.59
40992;BME280;29633;49.168;9.848;2023-02-21T09:17:06;97230.69;;;24.75;52.04
40992;BME280;29633;49.168;9.848;2023-02-21T09:19:31;97233.72;;;24.65;52.82
40992;BME280;29633;49.168;9.848;2023-02-21T09:21:57;97227.84;;;24.70;53.29
40992;BME280;29633;49.168;9.848;2023-02-21T09:24:24;97234.66;;;24.92;53.74
40992;BME280;29633;49.168;9.848;2023-02-21T09:26:51;97226.00;;;24.77;54.34
40992;BME280;29633;49.168;9.848;2023-02-21T09:29:20;97226.78;;;24.71;55.00
40992;BME280;29633;49.168;9.848;2023-02-21T09:31:46;97231.34;;;24.90;55.04
40992;BME280;29633;49.168;9.848;2023-02-21T09:34:11;97232.63;;;25.27;54.76
40992;BME280;29633;49.168;9.848;2023-02-21T09:36:39;97235.91;;;25.55;55.02
40992;BME280;29633;49.168;9.848;2023-02-21T09:39:05;97228.09;;;25.86;55.03
40992;BME280;29633;49.168;9.848;2023-02-21T09:41:32;97228.81;;;26.71;54.53
40992;BME280;29633;49.168;9.848;2023-02-21T09:43:58;97224.25;;;28.08;52.67
40992;BME280;29633;49.168;9.848;2023-02-21T09:46:47;97226.50;;;29.30;51.41
40992;BME280;29633;49.168;9.848;2023-02-21T09:49:24;97228.28;;;29.83;50.91
40992;BME280;29633;49.168;9.848;2023-02-21T09:51:51;97228.38;;;29.42;52.18
40992;BME280;29633;49.168;9.848;2023-02-21T09:54:33;97225.41;;;29.20;52.78
40992;BME280;29633;49.168;9.848;2023-02-21T09:57:01;97231.69;;;29.14;53.39
40992;BME280;29633;49.168;9.848;2023-02-21T09:59:27;97225.53;;;29.13;53.20
40992;BME280;29633;49.168;9.848;2023-02-21T10:02:09;97226.66;;;29.59;52.40
40992;BME280;29633;49.168;9.848;2023-02-21T10:10:29;97219.81;;;31.22;48.86
40992;BME280;29633;49.168;9.848;2023-02-21T10:21:13;97228.94;;;27.45;52.04
40992;BME280;29633;49.168;9.848;2023-02-21T10:23:47;97238.41;;;26.72;52.48
40992;BME280;29633;49.168;9.848;2023-02-21T10:26:19;97230.66;;;26.13;52.82
40992;BME280;29633;49.168;9.848;2023-02-21T10:28:45;97235.25;;;25.73;53.33
40992;BME280;29633;49.168;9.848;2023-02-21T10:31:22;97234.25;;;25.34;53.16
40992;BME280;29633;49.168;9.848;2023-02-21T10:33:52;97232.78;;;24.92;53.91
40992;BME280;29633;49.168;9.848;2023-02-21T10:36:20;97228.44;;;24.65;53.90
40992;BME280;29633;49.168;9.848;2023-02-21T10:38:55;97230.56;;;24.35;53.97
40992;BME280;29633;49.168;9.848;2023-02-21T10:41:22;97234.09;;;24.08;54.25
40992;BME280;29633;49.168;9.848;2023-02-21T10:43:52;97229.63;;;23.74;54.74
40992;BME280;29633;49.168;9.848;2023-02-21T10:46:27;97227.63;;;23.48;54.97
40992;BME280;29633;49.168;9.848;2023-02-21T10:48:58;97226.97;;;23.19;55.05
40992;BME280;29633;49.168;9.848;2023-02-21T10:51:32;97229.16;;;22.94;55.35
40992;BME280;29633;49.168;9.848;2023-02-21T10:54:23;97217.66;;;22.80;54.99
40992;BME280;29633;49.168;9.848;2023-02-21T10:56:49;97225.38;;;22.61;55.39
40992;BME280;29633;49.168;9.848;2023-02-21T10:59:30;97216.84;;;22.44;55.33
40992;BME280;29633;49.168;9.848;2023-02-21T11:01:57;97222.97;;;22.30;55.58
40992;BME280;29633;49.168;9.848;2023-02-21T11:04:31;97220.09;;;22.10;55.47
40992;BME280;29633;49.168;9.848;2023-02-21T11:07:05;97218.63;;;21.93;55.53
40992;BME280;29633;49.168;9.848;2023-02-21T11:09:40;97218.25;;;21.81;55.72
40992;BME280;29633;49.168;9.848;2023-02-21T11:20:14;97196.13;;;21.38;55.48
40992;BME280;29633;49.168;9.848;2023-02-21T11:22:39;97186.72;;;21.21;55.90
40992;BME280;29633;49.168;9.848;2023-02-21T11:25:30;97187.50;;;21.07;55.95
40992;BME280;29633;49.168;9.848;2023-02-21T11:30:39;97176.44;;;20.89;55.75
40992;BME280;29633;49.168;9.848;2023-02-21T11:33:07;97177.06;;;20.91;55.86
40992;BME280;29633;49.168;9.848;2023-02-21T11:35:47;97168.13;;;20.77;55.92
40992;BME280;29633;49.168;9.848;2023-02-21T11:41:14;97167.09;;;20.63;56.22
40992;BME280;29633;49.168;9.848;2023-02-21T11:43:45;97165.28;;;20.64;56.20
40992;BME280;29633;49.168;9.848;2023-02-21T11:46:39;97159.34;;;20.62;56.09
40992;BME280;29633;49.168;9.848;2023-02-21T11:51:57;97146.28;;;20.54;56.25
40992;BME280;29633;49.168;9.848;2023-02-21T11:54:27;97145.25;;;20.55;56.04
40992;BME280;29633;49.168;9.848;2023-02-21T12:03:00;97124.81;;;20.80;55.89
40992;BME280;29633;49.168;9.848;2023-02-21T12:05:52;97129.63;;;20.76;55.99
40992;BME280;29633;49.168;9.848;2023-02-21T12:08:37;97120.97;;;20.68;56.09
40992;BME280;29633;49.168;9.848;2023-02-21T12:11:27;97120.44;;;20.72;56.02
40992;BME280;29633;49.168;9.848;2023-02-21T12:20:14;97106.22;;;20.58;56.53
40992;BME280;29633;49.168;9.848;2023-02-21T12:28:26;97088.13;;;20.55;56.30
40992;BME280;29633;49.168;9.848;2023-02-21T12:31:10;97089.59;;;20.58;56.63
40992;BME280;29633;49.168;9.848;2023-02-21T12:34:00;97082.84;;;20.55;56.53
40992;BME280;29633;49.168;9.848;2023-02-21T12:36:38;97080.22;;;20.55;56.49
40992;BME280;29633;49.168;9.848;2023-02-21T12:42:18;97056.16;;;20.58;56.42
40992;BME280;29633;49.168;9.848;2023-02-21T12:50:20;97048.97;;;20.90;56.59
40992;BME280;29633;49.168;9.848;2023-02-21T12:52:53;97036.59;;;21.05;56.92
40992;BME280;29633;49.168;9.848;2023-02-21T12:55:36;97041.16;;;21.11;56.56
40992;BME280;29633;49.168;9.848;2023-02-21T13:06:37;97016.50;;;21.48;56.68
40992;BME280;29633;49.168;9.848;2023-02-21T13:14:40;96995.16;;;21.85;57.11
40992;BME280;29633;49.168;9.848;2023-02-21T13:17:13;96990.56;;;22.08;57.19
40992;BME280;29633;49.168;9.848;2023-02-21T13:19:49;96988.31;;;22.33;57.30
40992;BME280;29633;49.168;9.848;2023-02-21T13:25:57;96973.88;;;22.85;57.70
40992;BME280;29633;49.168;9.848;2023-02-21T13:28:29;96976.59;;;22.98;58.52
40992;BME280;29633;49.168;9.848;2023-02-21T13:31:01;96963.25;;;23.19;58.44
40992;BME280;29633;49.168;9.848;2023-02-21T13:33:37;96957.56;;;23.83;58.31
40992;BME280;29633;49.168;9.848;2023-02-21T13:36:29;96959.06;;;24.44;58.22
40992;BME280;29633;49.168;9.848;2023-02-21T13:41:54;96956.06;;;25.63;57.44
40992;BME280;29633;49.168;9.848;2023-02-21T13:44:38;96956.81;;;26.08;57.43
40992;BME280;29633;49.168;9.848;2023-02-21T13:47:12;96941.78;;;26.44;57.38
40992;BME280;29633;49.168;9.848;2023-02-21T13:49:57;96941.06;;;26.99;56.92
40992;BME280;29633;49.168;9.848;2023-02-21T14:03:03;96929.53;;;28.12;56.35
40992;BME280;29633;49.168;9.848;2023-02-21T14:08:35;96913.44;;;28.54;56.07
40992;BME280;29633;49.168;9.848;2023-02-21T14:16:18;96912.25;;;28.96;56.27
40992;BME280;29633;49.168;9.848;2023-02-21T14:21:24;96909.03;;;29.22;56.44
40992;BME280;29633;49.168;9.848;2023-02-21T14:23:55;96903.28;;;29.42;56.20
40992;BME280;29633;49.168;9.848;2023-02-21T14:34:50;96907.97;;;30.08;55.08
40992;BME280;29633;49.168;9.848;2023-02-21T14:42:59;96896.06;;;30.49;53.38
40992;BME280;29633;49.168;9.848;2023-02-21T14:46:02;96891.41;;;30.61;53.08
40992;BME280;29633;49.168;9.848;2023-02-21T14:48:50;96891.34;;;30.56;53.23
40992;BME280;29633;49.168;9.848;2023-02-21T14:51:35;96887.81;;;30.72;52.88
40992;BME280;29633;49.168;9.848;2023-02-21T15:02:29;96875.03;;;30.58;52.81
40992;BME280;29633;49.168;9.848;2023-02-21T15:05:26;96870.81;;;30.62;52.47
40992;BME280;29633;49.168;9.848;2023-02-21T15:08:16;96870.00;;;30.61;51.96
40992;BME280;29633;49.168;9.848;2023-02-21T15:10:44;96867.66;;;30.32;51.90
40992;BME280;29633;49.168;9.848;2023-02-21T15:15:46;96863.88;;;29.49;51.73
40992;BME280;29633;49.168;9.848;2023-02-21T15:18:24;96862.38;;;29.13;51.74
40992;BME280;29633;49.168;9.848;2023-02-21T15:21:06;96859.22;;;28.88;51.20
40992;BME280;29633;49.168;9.848;2023-02-21T15:23:32;96858.13;;;28.49;51.45
40992;BME280;29633;49.168;9.848;2023-02-21T15:26:18;96856.25;;;28.03;51.68
40992;BME280;29633;49.168;9.848;2023-02-21T15:29:01;96858.38;;;27.71;51.40
40992;BME280;29633;49.168;9.848;2023-02-21T15:31:27;96856.31;;;27.44;51.28
40992;BME280;29633;49.168;9.848;2023-02-21T15:33:56;96855.66;;;27.18;51.31
40992;BME280;29633;49.168;9.848;2023-02-21T15:36:22;96858.34;;;27.00;51.19
40992;BME280;29633;49.168;9.848;2023-02-21T15:39:38;96856.78;;;26.74;50.76
40992;BME280;29633;49.168;9.848;2023-02-21T15:41:42;96855.91;;;26.44;51.08
40992;BME280;29633;49.168;9.848;2023-02-21T15:44:11;96858.19;;;26.16;51.20
40992;BME280;29633;49.168;9.848;2023-02-21T15:50:09;96855.59;;;25.60;50.66
40992;BME280;29633;49.168;9.848;2023-02-21T15:52:42;96857.81;;;25.31;51.12
40992;BME280;29633;49.168;9.848;2023-02-21T15:57:46;96853.09;;;24.82;51.57
40992;BME280;29633;49.168;9.848;2023-02-21T16:02:42;96849.78;;;24.36;51.37
40992;BME280;29633;49.168;9.848;2023-02-21T16:05:25;96849.84;;;24.16;51.46
40992;BME280;29633;49.168;9.848;2023-02-21T16:07:52;96849.00;;;23.96;51.71
40992;BME280;29633;49.168;9.848;2023-02-21T16:10:21;96853.09;;;23.79;51.53
40992;BME280;29633;49.168;9.848;2023-02-21T16:12:54;96848.59;;;23.60;51.72
40992;BME280;29633;49.168;9.848;2023-02-21T16:15:28;96839.19;;;23.37;51.72
40992;BME280;29633;49.168;9.848;2023-02-21T16:17:56;96843.22;;;23.20;51.90